createdAt,value
2022-09-28T00:02:26.569Z,15.09
2022-09-28T00:04:54.603Z,15.05
2022-09-28T00:07:22.539Z,15.02
2022-09-28T00:09:50.520Z,14.95
2022-09-28T00:12:18.466Z,14.90
2022-09-28T00:14:46.535Z,14.83
2022-09-28T00:17:16.828Z,14.82
2022-09-28T00:19:46.103Z,14.78
2022-09-28T00:22:14.025Z,14.75
2022-09-28T00:24:41.953Z,14.75
2022-09-28T00:27:09.859Z,14.73
2022-09-28T00:29:38.491Z,14.72
2022-09-28T00:32:07.229Z,14.69
2022-09-28T00:34:36.670Z,14.65
2022-09-28T00:37:06.513Z,14.60
2022-09-28T00:39:35.950Z,14.56
2022-09-28T00:42:04.022Z,14.58
2022-09-28T00:44:40.087Z,14.61
2022-09-28T00:47:25.683Z,14.63
2022-09-28T00:49:55.486Z,14.66
2022-09-28T00:52:27.164Z,14.55
2022-09-28T00:54:55.428Z,14.68
2022-09-28T00:57:23.332Z,14.69
2022-09-28T00:59:51.501Z,14.69
2022-09-28T01:02:19.787Z,14.67
2022-09-28T01:04:47.772Z,14.68
2022-09-28T01:07:15.739Z,14.69
2022-09-28T01:09:45.914Z,14.65
2022-09-28T01:12:13.871Z,14.69
2022-09-28T01:14:41.829Z,14.68
2022-09-28T01:17:15.604Z,14.68
2022-09-28T01:20:14.151Z,14.66
2022-09-28T01:23:17.305Z,14.71
2022-09-28T01:25:52.421Z,14.63
2022-09-28T01:28:22.320Z,14.64
2022-09-28T01:30:54.855Z,14.69
2022-09-28T01:33:24.890Z,14.68
2022-09-28T01:35:54.060Z,14.70
2022-09-28T01:38:23.175Z,14.72
2022-09-28T01:40:51.183Z,14.73
2022-09-28T01:43:21.171Z,14.68
2022-09-28T01:45:52.044Z,14.69
2022-09-28T01:48:22.667Z,14.68
2022-09-28T01:50:51.925Z,14.64
2022-09-28T01:53:21.768Z,14.70
2022-09-28T01:55:51.123Z,14.52
2022-09-28T01:58:20.227Z,14.62
2022-09-28T02:00:49.242Z,14.48
2022-09-28T02:03:19.643Z,14.60
2022-09-28T02:05:49.718Z,14.51
2022-09-28T02:08:20.058Z,14.40
2022-09-28T02:10:49.726Z,14.44
2022-09-28T02:13:18.364Z,14.41
2022-09-28T02:15:49.877Z,14.38
2022-09-28T02:18:19.688Z,14.36
2022-09-28T02:20:57.337Z,14.40
2022-09-28T02:23:25.241Z,14.38
2022-09-28T02:25:54.345Z,14.44
2022-09-28T02:28:22.289Z,14.41
2022-09-28T02:30:50.226Z,14.45
2022-09-28T02:33:21.174Z,14.43
2022-09-28T02:35:49.104Z,14.46
2022-09-28T02:38:17.037Z,14.45
2022-09-28T02:40:47.363Z,14.45
2022-09-28T02:43:17.081Z,14.42
2022-09-28T02:45:58.346Z,14.36
2022-09-28T02:48:44.114Z,14.39
2022-09-28T02:51:20.062Z,14.35
2022-09-28T02:53:59.284Z,14.40
2022-09-28T02:56:35.240Z,14.31
2022-09-28T02:59:08.111Z,14.41
2022-09-28T03:01:38.287Z,14.40
2022-09-28T03:04:11.470Z,14.37
2022-09-28T03:06:41.345Z,14.35
2022-09-28T03:09:13.012Z,14.36
2022-09-28T03:11:43.823Z,14.36
2022-09-28T03:14:11.774Z,14.23
2022-09-28T03:16:43.089Z,14.30
2022-09-28T03:19:12.406Z,14.25
2022-09-28T03:21:40.419Z,14.23
2022-09-28T03:24:11.196Z,14.23
2022-09-28T03:26:39.321Z,14.22
2022-09-28T03:29:07.269Z,14.22
2022-09-28T03:31:35.372Z,14.06
2022-09-28T03:34:03.402Z,14.08
2022-09-28T03:36:32.708Z,13.93
2022-09-28T03:39:00.761Z,13.92
2022-09-28T03:41:28.897Z,13.74
2022-09-28T03:43:56.840Z,13.53
2022-09-28T03:46:24.762Z,13.43
2022-09-28T03:48:52.688Z,13.31
2022-09-28T03:51:20.596Z,13.24
2022-09-28T03:53:49.903Z,13.20
2022-09-28T03:56:17.912Z,13.17
2022-09-28T03:58:45.846Z,13.12
2022-09-28T04:01:17.524Z,13.16
2022-09-28T04:03:46.054Z,13.16
2022-09-28T04:06:13.977Z,13.17
2022-09-28T04:08:43.115Z,13.18
2022-09-28T04:11:12.467Z,13.17
2022-09-28T04:13:40.471Z,13.18
2022-09-28T04:16:08.571Z,13.16
2022-09-28T04:18:36.551Z,13.10
2022-09-28T04:21:06.867Z,13.08
2022-09-28T04:23:35.059Z,13.08
2022-09-28T04:26:03.225Z,13.07
2022-09-28T04:28:50.174Z,13.18
2022-09-28T04:31:19.218Z,13.25
2022-09-28T04:33:47.224Z,13.26
2022-09-28T04:36:15.183Z,13.39
2022-09-28T04:38:58.317Z,13.49
2022-09-28T04:41:26.579Z,13.61
2022-09-28T04:43:55.873Z,13.69
2022-09-28T04:46:23.781Z,13.84
2022-09-28T04:48:51.713Z,14.09
2022-09-28T04:51:19.656Z,14.57
2022-09-28T04:53:47.598Z,15.27
2022-09-28T04:56:16.449Z,15.66
2022-09-28T04:58:46.921Z,15.71
2022-09-28T05:01:20.512Z,15.43
2022-09-28T05:03:48.476Z,15.46
2022-09-28T05:06:16.496Z,15.52
2022-09-28T05:08:46.811Z,15.62
2022-09-28T05:11:15.067Z,15.70
2022-09-28T05:13:43.798Z,15.88
2022-09-28T05:16:11.768Z,16.03
2022-09-28T05:18:41.071Z,16.26
2022-09-28T05:21:11.212Z,16.40
2022-09-28T05:23:39.136Z,16.50
2022-09-28T05:26:07.419Z,16.66
2022-09-28T05:28:35.398Z,16.76
2022-09-28T05:31:03.667Z,16.96
2022-09-28T05:33:32.132Z,17.12
2022-09-28T05:36:01.962Z,17.45
2022-09-28T05:38:30.225Z,17.87
2022-09-28T05:40:58.193Z,18.05
2022-09-28T05:43:26.269Z,18.18
2022-09-28T05:45:55.839Z,18.32
2022-09-28T05:48:24.016Z,18.51
2022-09-28T05:50:52.389Z,18.83
2022-09-28T05:53:21.776Z,19.17
2022-09-28T05:55:49.680Z,19.49
2022-09-28T05:58:17.703Z,19.91
2022-09-28T06:00:45.651Z,20.49
2022-09-28T06:03:14.338Z,21.08
2022-09-28T06:05:42.299Z,21.37
2022-09-28T06:08:11.664Z,21.39
2022-09-28T06:10:41.004Z,21.18
2022-09-28T06:13:08.954Z,20.82
2022-09-28T06:15:37.010Z,21.02
2022-09-28T06:18:06.160Z,21.38
2022-09-28T06:20:35.631Z,22.35
2022-09-28T06:23:03.577Z,22.73
2022-09-28T06:25:31.484Z,22.80
2022-09-28T06:28:01.437Z,22.91
2022-09-28T06:30:30.443Z,23.44
2022-09-28T06:32:59.169Z,23.45
2022-09-28T06:35:28.445Z,23.16
2022-09-28T06:37:56.344Z,22.68
2022-09-28T06:40:24.896Z,22.30
2022-09-28T06:42:56.452Z,22.07
2022-09-28T06:45:25.951Z,21.82
2022-09-28T06:47:55.864Z,21.49
2022-09-28T06:50:24.167Z,21.37
2022-09-28T06:52:53.521Z,21.64
2022-09-28T06:55:21.617Z,21.46
2022-09-28T06:57:49.668Z,21.41
2022-09-28T07:00:17.753Z,21.41
2022-09-28T07:02:47.123Z,21.40
2022-09-28T07:05:15.202Z,21.40
2022-09-28T07:07:44.820Z,21.45
2022-09-28T07:10:12.916Z,21.39
2022-09-28T07:12:41.164Z,21.43
2022-09-28T07:15:10.172Z,21.52
2022-09-28T07:17:52.404Z,21.69
2022-09-28T07:20:26.971Z,21.72
2022-09-28T07:22:55.559Z,21.85
2022-09-28T07:25:23.974Z,21.79
2022-09-28T07:27:51.881Z,21.92
2022-09-28T07:30:20.322Z,22.04
2022-09-28T07:32:48.435Z,22.11
2022-09-28T07:35:16.567Z,22.13
2022-09-28T07:37:45.920Z,22.30
2022-09-28T07:40:31.262Z,22.54
2022-09-28T07:43:05.254Z,22.58
2022-09-28T07:45:34.175Z,22.72
2022-09-28T07:48:02.752Z,22.94
2022-09-28T07:50:30.726Z,23.11
2022-09-28T07:53:00.551Z,23.35
2022-09-28T07:55:28.479Z,23.42
2022-09-28T07:57:59.589Z,23.49
2022-09-28T08:00:29.833Z,23.67
2022-09-28T08:03:01.335Z,23.80
2022-09-28T08:05:32.277Z,23.89
2022-09-28T08:08:01.747Z,23.81
2022-09-28T08:10:29.707Z,23.81
2022-09-28T08:13:00.552Z,23.62
2022-09-28T08:15:35.102Z,23.64
2022-09-28T08:18:03.122Z,23.73
2022-09-28T08:20:51.685Z,23.84
2022-09-28T08:23:21.450Z,24.01
2022-09-28T08:25:49.901Z,24.03
2022-09-28T08:28:18.272Z,24.17
2022-09-28T08:30:46.356Z,24.11
2022-09-28T08:33:14.318Z,24.15
2022-09-28T08:35:42.312Z,24.19
2022-09-28T08:38:10.712Z,24.19
2022-09-28T08:40:45.930Z,24.22
2022-09-28T08:43:22.948Z,24.17
2022-09-28T08:45:50.944Z,24.20
2022-09-28T08:48:37.317Z,24.30
2022-09-28T08:51:07.320Z,24.29
2022-09-28T08:53:39.254Z,24.31
2022-09-28T08:56:12.058Z,24.43
2022-09-28T08:58:42.060Z,24.51
2022-09-28T09:01:11.795Z,24.64
2022-09-28T09:03:41.956Z,24.79
2022-09-28T09:06:18.372Z,24.66
2022-09-28T09:08:51.726Z,24.76
2022-09-28T09:11:29.354Z,24.77
2022-09-28T09:14:29.711Z,24.91
2022-09-28T09:17:01.058Z,24.81
2022-09-28T09:19:36.343Z,25.03
2022-09-28T09:22:11.351Z,25.08
2022-09-28T09:24:41.891Z,25.32
2022-09-28T09:27:15.652Z,25.29
2022-09-28T09:29:51.039Z,25.37
2022-09-28T09:32:27.288Z,25.57
2022-09-28T09:35:08.777Z,25.55
2022-09-28T09:37:54.151Z,25.70
2022-09-28T09:40:33.577Z,25.88
2022-09-28T09:43:08.370Z,25.87
2022-09-28T09:45:43.748Z,26.02
2022-09-28T09:48:13.862Z,26.27
2022-09-28T09:50:45.940Z,26.47
2022-09-28T09:53:17.276Z,26.55
2022-09-28T09:55:45.838Z,26.49
2022-09-28T09:58:16.896Z,26.76
2022-09-28T10:00:45.790Z,26.84
2022-09-28T10:03:18.914Z,26.90
2022-09-28T10:05:47.073Z,26.72
2022-09-28T10:08:16.822Z,26.67
2022-09-28T10:10:50.015Z,26.66
2022-09-28T10:13:19.327Z,26.85
2022-09-28T10:15:49.202Z,26.90
2022-09-28T10:18:17.842Z,26.93
2022-09-28T10:20:46.117Z,26.84
2022-09-28T10:23:17.163Z,26.91
2022-09-28T10:25:45.205Z,26.92
2022-09-28T10:28:15.561Z,26.82
2022-09-28T10:30:45.124Z,27.02
2022-09-28T10:33:28.587Z,27.27
2022-09-28T10:35:56.745Z,27.56
2022-09-28T10:38:24.899Z,27.93
2022-09-28T10:40:54.521Z,28.12
2022-09-28T10:43:23.933Z,28.58
2022-09-28T10:46:01.239Z,29.04
2022-09-28T10:48:29.267Z,29.28
2022-09-28T10:51:05.266Z,29.46
2022-09-28T10:53:33.298Z,29.36
2022-09-28T10:56:03.114Z,29.66
2022-09-28T10:58:38.394Z,29.72
2022-09-28T11:01:12.006Z,29.62
2022-09-28T11:03:49.820Z,29.62
2022-09-28T11:06:17.770Z,29.65
2022-09-28T11:08:46.398Z,29.75
2022-09-28T11:11:15.125Z,29.56
2022-09-28T11:13:45.060Z,29.74
2022-09-28T11:16:30.529Z,29.84
2022-09-28T11:18:59.169Z,29.68
2022-09-28T11:21:28.153Z,29.44
2022-09-28T11:24:02.572Z,29.24
2022-09-28T11:26:35.919Z,29.10
2022-09-28T11:29:05.279Z,28.95
2022-09-28T11:31:36.202Z,28.77
2022-09-28T11:34:06.633Z,28.60
2022-09-28T11:36:50.275Z,29.10
2022-09-28T11:39:20.357Z,28.97
2022-09-28T11:41:54.513Z,29.42
2022-09-28T11:44:40.480Z,30.05
2022-09-28T11:47:34.764Z,30.81
2022-09-28T11:50:04.306Z,31.61
2022-09-28T11:52:33.742Z,32.16
2022-09-28T11:55:03.333Z,32.85
2022-09-28T11:57:32.684Z,33.37
2022-09-28T12:00:01.814Z,33.04
2022-09-28T12:02:35.454Z,32.50
2022-09-28T12:05:18.361Z,32.27
2022-09-28T12:07:49.963Z,32.40
2022-09-28T12:10:19.699Z,32.85
2022-09-28T12:12:49.043Z,34.36
2022-09-28T12:15:19.774Z,34.79
2022-09-28T12:17:50.815Z,34.94
2022-09-28T12:20:22.277Z,33.92
2022-09-28T12:22:55.738Z,32.58
2022-09-28T12:25:24.111Z,31.84
2022-09-28T12:27:54.024Z,30.87
2022-09-28T12:30:22.551Z,30.18
2022-09-28T12:32:53.923Z,29.73
2022-09-28T12:35:28.840Z,29.33
2022-09-28T12:38:08.974Z,28.74
2022-09-28T12:40:43.290Z,28.31
2022-09-28T12:43:28.323Z,28.15
2022-09-28T12:46:12.615Z,27.99
2022-09-28T12:49:43.643Z,27.73
2022-09-28T12:51:49.831Z,27.58
2022-09-28T12:54:26.231Z,27.36
2022-09-28T12:57:00.419Z,27.18
2022-09-28T12:59:30.511Z,26.96
2022-09-28T13:02:22.948Z,26.97
2022-09-28T13:05:02.244Z,26.88
2022-09-28T13:07:32.354Z,26.80
2022-09-28T13:10:06.897Z,26.61
2022-09-28T13:12:41.558Z,26.53
2022-09-28T13:15:24.910Z,26.37
2022-09-28T13:17:56.961Z,26.36
2022-09-28T13:20:35.815Z,26.40
2022-09-28T13:23:11.681Z,26.32
2022-09-28T13:25:41.504Z,26.19
2022-09-28T13:28:10.676Z,26.27
2022-09-28T13:30:40.356Z,26.23
2022-09-28T13:33:08.812Z,26.24
2022-09-28T13:35:38.196Z,26.24
2022-09-28T13:38:30.530Z,26.25
2022-09-28T13:41:12.175Z,26.21
2022-09-28T13:43:48.064Z,26.18
2022-09-28T13:46:20.244Z,26.13
2022-09-28T13:48:50.758Z,26.09
2022-09-28T13:51:33.939Z,26.04
2022-09-28T13:54:11.190Z,25.91
2022-09-28T13:56:45.455Z,25.94
2022-09-28T13:59:17.784Z,25.84
2022-09-28T14:01:47.729Z,25.75
2022-09-28T14:04:19.038Z,25.78
2022-09-28T14:06:55.541Z,25.73
2022-09-28T14:09:42.466Z,25.64
2022-09-28T14:12:30.485Z,25.63
2022-09-28T14:14:58.506Z,25.62
2022-09-28T14:17:59.836Z,25.63
2022-09-28T14:20:28.207Z,25.59
2022-09-28T14:23:31.347Z,25.41
2022-09-28T14:26:16.117Z,25.45
2022-09-28T14:28:50.097Z,25.36
2022-09-28T14:31:22.655Z,25.30
2022-09-28T14:33:56.924Z,25.28
2022-09-28T14:36:47.476Z,25.20
2022-09-28T14:39:39.530Z,25.06
2022-09-28T14:42:12.827Z,24.93
2022-09-28T14:45:18.169Z,25.05
2022-09-28T14:47:46.339Z,24.97
2022-09-28T14:50:23.522Z,24.88
2022-09-28T14:52:52.400Z,24.81
2022-09-28T14:55:25.550Z,24.72
2022-09-28T14:57:54.282Z,24.60
2022-09-28T15:00:23.418Z,24.38
2022-09-28T15:02:52.746Z,24.33
2022-09-28T15:05:24.779Z,24.33
2022-09-28T15:07:53.450Z,24.17
2022-09-28T15:10:28.307Z,24.11
2022-09-28T15:12:57.203Z,24.04
2022-09-28T15:15:31.777Z,23.98
2022-09-28T15:18:05.763Z,23.90
2022-09-28T15:20:35.444Z,23.84
2022-09-28T15:23:03.403Z,23.77
2022-09-28T15:25:33.998Z,23.68
2022-09-28T15:28:04.678Z,23.63
2022-09-28T15:30:33.208Z,23.54
2022-09-28T15:33:15.734Z,23.46
2022-09-28T15:35:43.676Z,23.37
2022-09-28T15:38:11.951Z,23.27
2022-09-28T15:40:41.371Z,23.15
2022-09-28T15:43:24.223Z,22.99
2022-09-28T15:46:02.952Z,22.77
2022-09-28T15:48:32.029Z,22.70
2022-09-28T15:51:02.578Z,22.57
2022-09-28T15:53:31.382Z,22.45
2022-09-28T15:56:09.693Z,22.33
2022-09-28T15:58:38.477Z,22.19
2022-09-28T16:01:29.417Z,22.00
2022-09-28T16:03:57.394Z,21.90
2022-09-28T16:06:25.427Z,21.73
2022-09-28T16:08:53.866Z,21.57
2022-09-28T16:11:26.290Z,21.35
2022-09-28T16:14:01.658Z,21.17
2022-09-28T16:16:31.274Z,21.09
2022-09-28T16:19:00.653Z,20.96
2022-09-28T16:21:44.497Z,20.80
2022-09-28T16:24:20.980Z,20.48
2022-09-28T16:26:50.387Z,20.51
2022-09-28T16:29:29.081Z,20.37
2022-09-28T16:31:57.050Z,20.27
2022-09-28T16:34:25.862Z,20.19
2022-09-28T16:36:53.821Z,20.09
2022-09-28T16:39:21.980Z,20.01
2022-09-28T16:41:53.889Z,19.93
2022-09-28T16:44:24.641Z,19.77
2022-09-28T16:46:53.947Z,19.64
2022-09-28T16:49:21.881Z,19.61
2022-09-28T16:51:49.919Z,19.60
2022-09-28T16:54:36.583Z,19.54
2022-09-28T16:57:06.709Z,19.46
2022-09-28T16:59:34.640Z,19.45
2022-09-28T17:02:02.642Z,19.42
2022-09-28T17:04:30.615Z,19.41
2022-09-28T17:06:58.551Z,19.40
2022-09-28T17:09:26.721Z,19.40
2022-09-28T17:11:56.188Z,19.52
2022-09-28T17:14:27.151Z,19.56
2022-09-28T17:17:08.157Z,19.59
2022-09-28T17:19:43.198Z,19.61
2022-09-28T17:22:11.144Z,19.62
2022-09-28T17:24:39.967Z,19.59
2022-09-28T17:27:08.240Z,19.61
2022-09-28T17:29:37.603Z,19.63
2022-09-28T17:32:08.375Z,19.56
2022-09-28T17:34:36.376Z,19.58
2022-09-28T17:37:04.321Z,19.57
2022-09-28T17:39:32.227Z,19.52
2022-09-28T17:42:00.222Z,19.51
2022-09-28T17:44:28.418Z,19.50
2022-09-28T17:46:57.737Z,19.50
2022-09-28T17:49:25.748Z,19.51
2022-09-28T17:51:54.253Z,19.57
2022-09-28T17:54:22.595Z,19.62
2022-09-28T17:56:50.808Z,19.71
2022-09-28T17:59:19.027Z,19.78
2022-09-28T18:01:48.259Z,19.84
2022-09-28T18:04:39.804Z,19.88
2022-09-28T18:07:05.766Z,19.91
2022-09-28T18:09:33.694Z,19.87
2022-09-28T18:12:02.267Z,19.77
2022-09-28T18:14:30.212Z,19.68
2022-09-28T18:16:58.179Z,19.56
2022-09-28T18:19:31.711Z,19.41
2022-09-28T18:22:01.428Z,19.30
2022-09-28T18:24:29.592Z,19.22
2022-09-28T18:26:57.566Z,19.12
2022-09-28T18:29:26.708Z,19.01
2022-09-28T18:31:56.034Z,18.92
2022-09-28T18:34:24.025Z,18.78
2022-09-28T18:36:53.499Z,18.70
2022-09-28T18:39:21.803Z,18.64
2022-09-28T18:41:49.752Z,18.56
2022-09-28T18:44:17.711Z,18.49
2022-09-28T18:46:45.726Z,18.45
2022-09-28T18:49:13.672Z,18.15
2022-09-28T18:51:41.686Z,18.34
2022-09-28T18:54:11.018Z,18.26
2022-09-28T18:56:38.965Z,18.22
2022-09-28T18:59:11.240Z,18.18
2022-09-28T19:01:41.681Z,18.18
2022-09-28T19:04:10.458Z,18.16
2022-09-28T19:06:40.709Z,18.17
2022-09-28T19:09:10.340Z,18.16
2022-09-28T19:11:38.310Z,18.21
2022-09-28T19:14:06.285Z,18.27
2022-09-28T19:16:34.774Z,18.28
2022-09-28T19:19:03.411Z,18.33
2022-09-28T19:21:31.505Z,18.48
2022-09-28T19:24:01.434Z,18.54
2022-09-28T19:26:30.863Z,18.58
2022-09-28T19:28:59.009Z,18.43
2022-09-28T19:31:27.166Z,18.61
2022-09-28T19:33:55.127Z,18.64
2022-09-28T19:36:24.263Z,18.67
2022-09-28T19:38:52.778Z,18.70
2022-09-28T19:41:39.099Z,18.65
2022-09-28T19:44:09.862Z,18.61
2022-09-28T19:46:38.868Z,18.64
2022-09-28T19:49:10.373Z,18.70
2022-09-28T19:51:46.915Z,18.68
2022-09-28T19:54:30.204Z,18.75
2022-09-28T19:57:01.378Z,18.83
2022-09-28T19:59:30.766Z,18.87
2022-09-28T20:02:01.351Z,18.92
2022-09-28T20:04:29.591Z,18.97
2022-09-28T20:06:57.527Z,18.99
2022-09-28T20:09:25.470Z,19.04
2022-09-28T20:11:53.406Z,19.06
2022-09-28T20:14:23.426Z,19.10
2022-09-28T20:16:55.227Z,19.15
2022-09-28T20:19:23.475Z,19.07
2022-09-28T20:21:51.493Z,19.11
2022-09-28T20:24:19.451Z,19.12
2022-09-28T20:26:49.615Z,19.13
2022-09-28T20:29:17.640Z,19.13
2022-09-28T20:31:45.709Z,19.14
2022-09-28T20:34:15.079Z,19.16
2022-09-28T20:36:44.716Z,19.18
2022-09-28T20:39:12.912Z,19.17
2022-09-28T20:41:41.203Z,19.18
2022-09-28T20:44:09.892Z,19.19
2022-09-28T20:46:38.116Z,19.18
2022-09-28T20:49:07.215Z,19.19
2022-09-28T20:51:36.506Z,19.20
2022-09-28T20:54:04.959Z,19.22
2022-09-28T20:56:37.621Z,19.16
2022-09-28T20:59:05.775Z,19.12
2022-09-28T21:01:33.892Z,19.05
2022-09-28T21:04:02.532Z,18.87
2022-09-28T21:06:31.473Z,18.92
2022-09-28T21:09:00.881Z,18.89
2022-09-28T21:11:29.562Z,18.80
2022-09-28T21:13:58.940Z,18.72
2022-09-28T21:16:27.136Z,18.65
2022-09-28T21:18:55.169Z,18.59
2022-09-28T21:21:23.426Z,18.50
2022-09-28T21:23:53.353Z,18.50
2022-09-28T21:26:25.945Z,18.45
2022-09-28T21:28:54.149Z,18.41
2022-09-28T21:31:27.535Z,18.35
2022-09-28T21:33:56.672Z,18.31
2022-09-28T21:36:24.647Z,18.26
2022-09-28T21:38:53.536Z,18.14
2022-09-28T21:41:22.856Z,18.03
2022-09-28T21:43:50.893Z,17.96
2022-09-28T21:46:18.952Z,17.90
2022-09-28T21:48:46.917Z,17.80
2022-09-28T21:51:15.230Z,17.82
2022-09-28T21:53:43.741Z,17.80
2022-09-28T21:56:13.067Z,17.80
2022-09-28T21:58:42.356Z,17.76
2022-09-28T22:01:12.204Z,17.75
2022-09-28T22:03:40.217Z,17.68
2022-09-28T22:06:08.593Z,17.62
2022-09-28T22:08:36.736Z,17.58
2022-09-28T22:11:06.558Z,17.41
2022-09-28T22:13:35.728Z,17.36
2022-09-28T22:16:05.184Z,17.36
2022-09-28T22:18:34.033Z,17.31
2022-09-28T22:21:02.085Z,17.30
2022-09-28T22:23:30.119Z,17.29
2022-09-28T22:26:01.557Z,17.29
2022-09-28T22:28:29.636Z,17.20
2022-09-28T22:30:57.693Z,17.26
2022-09-28T22:33:27.171Z,17.23
2022-09-28T22:35:55.515Z,17.17
2022-09-28T22:38:24.943Z,17.19
2022-09-28T22:40:54.261Z,17.14
2022-09-28T22:43:23.442Z,17.08
2022-09-28T22:45:51.406Z,16.99
2022-09-28T22:48:19.363Z,16.99
2022-09-28T22:50:51.804Z,16.96
2022-09-28T22:53:19.928Z,16.86
2022-09-28T22:55:47.888Z,16.86
2022-09-28T22:58:15.856Z,16.88
2022-09-28T23:00:44.537Z,16.88
2022-09-28T23:03:12.583Z,16.86
2022-09-28T23:05:40.569Z,16.82
2022-09-28T23:08:10.604Z,16.77
2022-09-28T23:10:38.617Z,16.74
2022-09-28T23:13:06.544Z,16.70
2022-09-28T23:15:34.486Z,16.68
2022-09-28T23:18:02.465Z,16.65
2022-09-28T23:20:30.408Z,16.62
2022-09-28T23:22:58.409Z,16.59
2022-09-28T23:25:29.046Z,16.56
2022-09-28T23:27:57.005Z,16.55
2022-09-28T23:30:25.710Z,16.53
2022-09-28T23:32:54.248Z,16.56
2022-09-28T23:35:22.208Z,16.56
2022-09-28T23:37:53.184Z,16.55
2022-09-28T23:40:21.206Z,16.58
2022-09-28T23:42:50.622Z,16.56
2022-09-28T23:45:18.558Z,16.63
2022-09-28T23:47:46.567Z,16.62
2022-09-28T23:50:14.551Z,16.68
2022-09-28T23:52:42.513Z,16.74
2022-09-28T23:55:10.687Z,16.73
2022-09-28T23:57:41.110Z,16.73
